Time;durP1;ratioP1;P1;durP2;ratioP2;P2;SDS_P1;SDS_P2;PMS_P1;PMS_P2;Temp;Humidity;BMP_temperature;BMP_pressure;BME280_temperature;BME280_humidity;BME280_pressure;Samples;Min_cycle;Max_cycle;Signal;HPM_P1;HPM_P2
2022/07/03 00:01:46;;;;;;;;;3.00;1.00;;;;;20.27;39.78;101297.19;5025482;28;63550;-49
2022/07/03 00:04:12;;;;;;;;;1.00;1.00;;;;;20.28;39.35;101290.91;5032770;28;45593;-48
2022/07/03 00:06:37;;;;;;;;;1.75;1.00;;;;;20.29;39.61;101283.78;5032841;28;45423;-48
2022/07/03 00:09:05;;;;;;;;;3.50;1.00;;;;;20.27;39.84;101293.63;5029997;28;66524;-49
2022/07/03 00:11:32;;;;;;;;;1.00;1.00;;;;;20.26;40.35;101284.81;5035694;28;45721;-46
2022/07/03 00:13:57;;;;;;;;;3.00;1.00;;;;;20.25;39.84;101283.09;5034668;28;45470;-47
2022/07/03 00:16:23;;;;;;;;;1.00;0.75;;;;;20.25;40.13;101285.75;5037761;28;51989;-47
2022/07/03 00:18:48;;;;;;;;;1.00;1.00;;;;;20.25;39.89;101288.41;5029222;28;45557;-49
2022/07/03 00:21:19;;;;;;;;;4.00;0.75;;;;;20.25;39.81;101287.56;5026504;28;45489;-46
2022/07/03 00:24:00;;;;;;;;;1.25;0.50;;;;;20.23;40.13;101292.97;5031231;28;48077;-46
2022/07/03 00:26:30;;;;;;;;;2.00;2.00;;;;;20.21;40.24;101296.66;5029804;28;45443;-50
2022/07/03 00:28:58;;;;;;;;;2.00;0.00;;;;;20.19;40.17;101294.09;5026621;28;47113;-51
2022/07/03 00:31:23;;;;;;;;;0.00;0.00;;;;;20.18;39.86;101280.91;5036004;28;45459;-51
2022/07/03 00:33:51;;;;;;;;;1.50;1.00;;;;;20.16;40.13;101280.13;5031457;28;65126;-47
2022/07/03 00:36:17;;;;;;;;;0.00;0.00;;;;;20.14;40.38;101277.56;5030248;28;65583;-50
2022/07/03 00:38:44;;;;;;;;;0.75;0.75;;;;;20.13;39.83;101277.66;5010578;28;46113;-49
2022/07/03 00:41:24;;;;;;;;;2.00;0.00;;;;;20.07;40.11;101285.03;5034614;28;45477;-49
2022/07/03 00:43:49;;;;;;;;;1.00;1.00;;;;;20.09;40.22;101284.94;5027802;28;45540;-48
2022/07/03 00:46:17;;;;;;;;;2.50;1.00;;;;;20.07;40.18;101285.03;5030085;28;64940;-46
2022/07/03 00:48:46;;;;;;;;;1.00;1.00;;;;;20.06;39.89;101287.78;5026162;28;66911;-51
2022/07/03 00:51:13;;;;;;;;;1.00;1.00;;;;;20.05;39.94;101294.06;5032139;28;65318;-51
2022/07/03 00:53:41;;;;;;;;;1.00;0.00;;;;;20.02;40.14;101295.06;5023612;28;45444;-46
2022/07/03 00:56:08;;;;;;;;;1.00;1.00;;;;;19.99;40.01;101297.03;5023272;28;45498;-51
2022/07/03 00:58:34;;;;;;;;;1.50;1.00;;;;;19.94;40.11;101289.34;5028710;28;45277;-51
2022/07/03 01:01:00;;;;;;;;;1.00;0.00;;;;;19.92;40.36;101285.94;5034045;28;45508;-49
2022/07/03 01:03:27;;;;;;;;;1.75;1.50;;;;;19.92;40.21;101297.41;5030170;28;45648;-49
2022/07/03 01:05:54;;;;;;;;;1.00;1.00;;;;;19.92;39.92;101292.09;5033840;28;45517;-50
2022/07/03 01:08:38;;;;;;;;;1.00;1.00;;;;;19.90;40.28;101295.78;5031643;28;45554;-51
2022/07/03 01:11:28;;;;;;;;;1.25;1.00;;;;;19.88;40.09;101284.38;5025092;28;45467;-49
2022/07/03 01:14:21;;;;;;;;;2.25;1.00;;;;;19.86;40.38;101289.78;5016085;28;45383;-47
2022/07/03 01:16:51;;;;;;;;;3.00;1.75;;;;;19.81;40.36;101291.84;5031858;28;45498;-48
2022/07/03 01:19:43;;;;;;;;;2.00;1.00;;;;;19.79;40.12;101292.88;5033098;28;46393;-47
2022/07/03 01:22:30;;;;;;;;;2.50;2.00;;;;;19.76;40.37;101299.25;5028893;28;45714;-51
2022/07/03 01:25:15;;;;;;;;;3.25;1.00;;;;;19.72;40.60;101295.88;5038258;28;45471;-51
2022/07/03 01:27:59;;;;;;;;;1.50;1.00;;;;;19.68;40.31;101299.63;5031422;28;45489;-51
2022/07/03 01:30:29;;;;;;;;;0.75;0.75;;;;;19.64;40.46;101295.44;5037181;28;46041;-51
2022/07/03 01:33:05;;;;;;;;;4.00;1.00;;;;;19.62;40.91;101297.31;5020909;28;45491;-52
2022/07/03 01:35:40;;;;;;;;;0.50;0.50;;;;;19.61;40.74;101302.72;5033343;28;45538;-52
2022/07/03 01:38:10;;;;;;;;;3.75;1.00;;;;;19.56;40.33;101295.00;5030121;28;45357;-51
2022/07/03 01:40:38;;;;;;;;;0.00;0.00;;;;;19.56;40.60;101302.97;5040613;28;45399;-48
2022/07/03 01:43:06;;;;;;;;;0.00;0.00;;;;;19.53;40.91;101298.69;5028582;28;45525;-46
2022/07/03 01:45:33;;;;;;;;;1.75;0.25;;;;;19.54;40.86;101291.56;5034551;28;45572;-50
2022/07/03 01:47:58;;;;;;;;;1.00;1.00;;;;;19.52;40.87;101296.13;5034175;28;45596;-51
2022/07/03 01:50:24;;;;;;;;;1.00;1.00;;;;;19.50;41.01;101290.03;5035548;28;45561;-49
2022/07/03 01:52:50;;;;;;;;;2.75;1.00;;;;;19.50;41.08;101298.00;5030299;28;46043;-49
2022/07/03 01:55:17;;;;;;;;;2.75;0.00;;;;;19.47;41.18;101292.84;5030995;28;47512;-49
2022/07/03 01:57:44;;;;;;;;;1.00;1.00;;;;;19.46;41.10;101289.34;5026804;28;51331;-46
2022/07/03 02:00:11;;;;;;;;;2.00;0.75;;;;;19.45;41.39;101294.75;5035803;28;45351;-47
2022/07/03 02:02:43;;;;;;;;;1.00;1.00;;;;;19.42;41.02;101294.91;5030769;28;45305;-49
2022/07/03 02:05:14;;;;;;;;;2.25;0.25;;;;;19.37;41.68;101287.22;5036348;28;45327;-49
2022/07/03 02:07:49;;;;;;;;;1.00;0.75;;;;;19.34;41.34;101287.38;5033002;28;45502;-49
2022/07/03 02:10:26;;;;;;;;;0.75;0.75;;;;;19.33;41.70;101294.47;5035302;28;45392;-51
2022/07/03 02:12:59;;;;;;;;;0.75;0.75;;;;;19.29;41.10;101290.28;5034749;28;45339;-50
2022/07/03 02:15:35;;;;;;;;;4.00;1.00;;;;;19.26;41.40;101290.44;5036032;28;45873;-47
2022/07/03 02:18:10;;;;;;;;;1.00;1.00;;;;;19.25;41.73;101294.03;5034289;28;45359;-46
2022/07/03 02:20:39;;;;;;;;;2.00;0.75;;;;;19.25;41.49;101291.41;5034085;28;46337;-49
2022/07/03 02:23:05;;;;;;;;;0.25;0.25;;;;;19.25;41.42;101293.19;5034585;28;45569;-49
2022/07/03 02:25:36;;;;;;;;;0.25;0.25;;;;;19.21;41.59;101288.97;5034210;28;45477;-50
2022/07/03 02:28:25;;;;;;;;;1.00;0.75;;;;;19.16;41.54;101289.25;5025929;28;45535;-48
2022/07/03 02:30:53;;;;;;;;;0.00;0.00;;;;;19.13;41.92;101290.25;5039451;28;45481;-50
2022/07/03 02:33:22;;;;;;;;;0.00;0.00;;;;;19.12;41.74;101295.63;5026226;28;45284;-50
2022/07/03 02:35:48;;;;;;;;;2.50;1.00;;;;;19.07;41.97;101287.94;5036853;28;45577;-46
2022/07/03 02:38:20;;;;;;;;;0.25;0.25;;;;;19.08;41.75;101294.94;5034383;28;45561;-50
2022/07/03 02:40:49;;;;;;;;;0.00;0.00;;;;;19.06;41.90;101291.53;5034296;28;46066;-50
2022/07/03 02:43:20;;;;;;;;;1.00;1.00;;;;;19.03;42.06;101301.44;5033630;28;45273;-51
2022/07/03 02:45:51;;;;;;;;;3.75;0.25;;;;;19.03;42.36;101298.78;5037319;28;45456;-50
2022/07/03 02:48:27;;;;;;;;;1.00;1.00;;;;;19.02;42.08;101303.25;5027880;28;45475;-50
2022/07/03 02:50:59;;;;;;;;;1.00;1.00;;;;;19.00;42.35;101309.56;5034006;28;47134;-52
2022/07/03 02:53:48;;;;;;;;;0.25;0.25;;;;;18.93;42.74;101309.06;5035329;28;45319;-49
2022/07/03 02:56:18;;;;;;;;;2.00;0.00;;;;;18.89;42.64;101304.81;5036464;28;45481;-52
2022/07/03 02:59:10;;;;;;;;;1.50;1.00;;;;;18.84;42.63;101302.44;5018211;28;45521;-48
2022/07/03 03:01:44;;;;;;;;;0.25;0.00;;;;;18.82;42.41;101293.69;5038308;28;46306;-50
2022/07/03 03:04:22;;;;;;;;;0.75;0.75;;;;;18.81;42.68;101312.31;5034338;28;45886;-51
2022/07/03 03:07:19;;;;;;;;;1.00;1.00;;;;;18.78;43.05;101310.66;5032318;28;45504;-48
2022/07/03 03:09:47;;;;;;;;;0.00;0.00;;;;;18.74;43.47;101309.13;5030636;28;45483;-50
2022/07/03 03:12:14;;;;;;;;;1.00;1.00;;;;;18.71;42.86;101312.75;5036601;28;46387;-47
2022/07/03 03:14:45;;;;;;;;;2.00;0.25;;;;;18.71;42.91;101306.63;5034055;28;45604;-51
2022/07/03 03:17:17;;;;;;;;;1.00;1.00;;;;;18.68;43.87;101320.03;5030516;28;45285;-49
2022/07/03 03:19:46;;;;;;;;;0.75;0.50;;;;;18.62;43.44;101315.91;5035621;28;45319;-47
2022/07/03 03:22:39;;;;;;;;;1.50;0.75;;;;;18.56;43.80;101313.59;5024610;28;45335;-50
2022/07/03 03:25:05;;;;;;;;;2.75;1.00;;;;;18.54;43.43;101318.97;5029600;28;45282;-49
2022/07/03 03:27:30;;;;;;;;;0.50;0.50;;;;;18.52;43.90;101309.34;5033217;28;45371;-47
2022/07/03 03:29:56;;;;;;;;;1.25;1.00;;;;;18.51;43.50;101308.50;5035715;28;46759;-50
2022/07/03 03:32:22;;;;;;;;;2.75;1.00;;;;;18.51;43.88;101311.16;5033165;28;55237;-46
2022/07/03 03:34:47;;;;;;;;;1.00;1.00;;;;;18.51;43.65;101305.84;5028006;28;45601;-48
2022/07/03 03:37:13;;;;;;;;;1.00;1.00;;;;;18.51;44.21;101308.50;5025071;28;45596;-49
2022/07/03 03:39:38;;;;;;;;;3.00;1.50;;;;;18.50;43.34;101306.81;5032744;28;45439;-46
2022/07/03 03:42:04;;;;;;;;;3.00;2.00;;;;;18.49;44.19;101306.88;5031585;28;74678;-46
2022/07/03 03:44:29;;;;;;;;;2.00;2.00;;;;;18.48;43.98;101303.34;5027490;28;45423;-48
2022/07/03 03:46:55;;;;;;;;;3.50;0.75;;;;;18.49;43.96;101307.72;5026556;28;65590;-48
2022/07/03 03:49:21;;;;;;;;;2.00;2.00;;;;;18.47;43.87;101312.25;5030347;28;45434;-51
2022/07/03 03:51:46;;;;;;;;;1.25;1.25;;;;;18.45;44.32;101310.59;5028777;28;45419;-48
2022/07/03 03:54:11;;;;;;;;;2.00;1.00;;;;;18.40;44.61;101308.19;5042652;28;45315;-46
2022/07/03 03:56:37;;;;;;;;;2.75;1.25;;;;;18.38;44.38;101315.38;5032713;28;45495;-48
2022/07/03 03:59:02;;;;;;;;;3.00;2.00;;;;;18.36;44.51;101314.56;5032621;28;45461;-48
2022/07/03 04:01:27;;;;;;;;;2.00;2.00;;;;;18.31;44.57;101309.53;5028053;28;64375;-46
2022/07/03 04:03:53;;;;;;;;;4.75;1.75;;;;;18.28;45.42;101309.66;5031037;28;45534;-50
2022/07/03 04:06:21;;;;;;;;;2.50;2.50;;;;;18.27;44.41;101318.53;5038671;28;45712;-49
2022/07/03 04:08:47;;;;;;;;;3.75;2.00;;;;;18.26;44.66;101321.28;5028343;28;63984;-47
2022/07/03 04:11:12;;;;;;;;;4.00;1.25;;;;;18.26;44.37;101313.34;5032937;28;70489;-50
2022/07/03 04:13:37;;;;;;;;;4.00;2.00;;;;;18.23;45.14;101324.94;5030963;28;66521;-51
2022/07/03 04:16:03;;;;;;;;;4.00;1.00;;;;;18.23;44.96;101332.03;5032056;28;45241;-52
2022/07/03 04:18:28;;;;;;;;;2.00;1.25;;;;;18.20;45.20;101325.97;5026456;28;45229;-51
2022/07/03 04:20:54;;;;;;;;;2.25;0.50;;;;;18.14;45.13;101334.19;5034213;28;72715;-48
2022/07/03 04:23:19;;;;;;;;;1.00;1.00;;;;;18.13;44.51;101324.56;5031474;28;69571;-47
2022/07/03 04:25:44;;;;;;;;;1.00;1.00;;;;;18.09;44.79;101328.25;5035891;28;45797;-48
2022/07/03 04:28:10;;;;;;;;;3.25;2.00;;;;;18.09;44.63;101335.34;5024937;28;54103;-46
2022/07/03 04:30:35;;;;;;;;;1.50;1.00;;;;;18.08;45.20;101336.28;5032991;28;47328;-46
2022/07/03 04:33:01;;;;;;;;;1.75;1.00;;;;;18.08;45.27;101341.56;5033155;28;45599;-46
2022/07/03 04:35:26;;;;;;;;;0.50;0.50;;;;;18.06;44.93;101338.16;5035682;28;54694;-47
2022/07/03 04:37:51;;;;;;;;;1.50;1.00;;;;;18.07;44.99;101346.03;5033219;28;45540;-47
2022/07/03 04:40:17;;;;;;;;;2.75;1.00;;;;;18.04;45.59;101338.22;5030353;28;46852;-47
2022/07/03 04:42:42;;;;;;;;;5.50;1.00;;;;;18.02;45.04;101345.38;5036788;28;45722;-46
2022/07/03 04:45:08;;;;;;;;;1.50;1.00;;;;;18.00;45.84;101348.09;5035066;28;45507;-46
2022/07/03 04:47:33;;;;;;;;;1.00;1.00;;;;;18.01;45.64;101348.97;5033817;28;45301;-46
2022/07/03 04:49:59;;;;;;;;;1.25;1.25;;;;;18.05;45.29;101352.34;5033615;28;66947;-46
2022/07/03 04:52:24;;;;;;;;;1.00;1.00;;;;;18.06;46.04;101352.28;5045103;28;51676;-51
2022/07/03 04:54:50;;;;;;;;;1.00;1.00;;;;;18.08;46.04;101353.06;5036571;28;45516;-47
2022/07/03 04:57:15;;;;;;;;;1.00;1.00;;;;;18.10;45.32;101345.03;5035524;28;65224;-47
2022/07/03 04:59:40;;;;;;;;;1.00;0.75;;;;;18.14;45.11;101357.19;5031636;28;72122;-48
2022/07/03 05:02:06;;;;;;;;;2.75;1.00;;;;;18.15;45.36;101350.94;5037175;28;45360;-48
2022/07/03 05:04:31;;;;;;;;;1.00;1.00;;;;;18.19;45.79;101352.53;5032971;28;45433;-47
2022/07/03 05:06:57;;;;;;;;;2.00;0.00;;;;;18.20;45.92;101348.91;5032294;28;69328;-46
2022/07/03 05:09:22;;;;;;;;;1.00;1.00;;;;;18.15;45.94;101346.53;5035885;28;45370;-48
2022/07/03 05:11:47;;;;;;;;;1.00;1.00;;;;;18.16;46.23;101347.38;5035954;28;61744;-50
2022/07/03 05:14:13;;;;;;;;;0.75;0.75;;;;;18.23;46.30;101350.59;5037368;28;45458;-51
2022/07/03 05:16:38;;;;;;;;;2.50;1.00;;;;;18.29;45.99;101358.22;5033077;28;58993;-49
2022/07/03 05:19:04;;;;;;;;;3.50;1.00;;;;;18.35;45.56;101353.47;5029547;28;45830;-48
2022/07/03 05:21:30;;;;;;;;;2.25;2.00;;;;;18.42;45.94;101353.19;5034175;28;45462;-49
2022/07/03 05:23:55;;;;;;;;;1.25;1.00;;;;;18.46;45.72;101355.59;5037660;28;45550;-50
2022/07/03 05:26:20;;;;;;;;;2.00;0.50;;;;;18.52;45.87;101343.81;5032955;28;61519;-51
2022/07/03 05:28:46;;;;;;;;;1.00;1.00;;;;;18.55;45.81;101352.47;5037858;28;62450;-48
2022/07/03 05:31:11;;;;;;;;;1.25;1.00;;;;;18.57;46.10;101344.44;5040323;28;45237;-50
2022/07/03 05:33:37;;;;;;;;;3.00;1.25;;;;;18.62;45.85;101350.38;5034038;28;45557;-47
2022/07/03 05:36:03;;;;;;;;;2.25;2.00;;;;;18.65;46.08;101352.88;5035762;28;45474;-48
2022/07/03 05:41:30;;;;;;;;;3.00;1.00;;;;;18.69;45.86;101362.38;5034774;28;45628;-50
2022/07/03 05:43:55;;;;;;;;;0.25;0.25;;;;;18.70;45.84;101355.28;5047199;28;45467;-50
2022/07/03 05:46:20;;;;;;;;;1.50;1.00;;;;;18.69;45.81;101358.88;5035757;28;72582;-46
2022/07/03 05:48:45;;;;;;;;;2.75;1.00;;;;;18.70;46.46;101358.78;5028953;28;70734;-48
2022/07/03 05:51:11;;;;;;;;;2.00;1.00;;;;;18.72;45.79;101356.91;5036000;28;74322;-47
2022/07/03 05:53:36;;;;;;;;;0.25;0.25;;;;;18.76;46.50;101362.91;5027219;28;45456;-47
2022/07/03 05:56:01;;;;;;;;;0.75;0.25;;;;;18.81;46.77;101362.69;5034615;28;72293;-50
2022/07/03 05:58:27;;;;;;;;;2.00;1.00;;;;;18.86;46.43;101363.34;5031687;28;46248;-48
2022/07/03 06:00:52;;;;;;;;;2.25;1.75;;;;;18.90;46.47;101362.25;5032777;28;45510;-48
2022/07/03 06:03:18;;;;;;;;;1.00;1.00;;;;;18.93;46.74;101368.25;5031602;28;45583;-48
2022/07/03 06:05:43;;;;;;;;;1.00;1.00;;;;;18.97;46.25;101368.94;5035129;28;64002;-47
2022/07/03 06:08:09;;;;;;;;;1.75;0.75;;;;;18.97;45.94;101372.44;5030712;28;47089;-47
2022/07/03 06:10:34;;;;;;;;;1.75;1.00;;;;;18.98;46.47;101373.28;5038955;28;67710;-47
2022/07/03 06:12:59;;;;;;;;;1.25;1.25;;;;;18.98;46.78;101373.28;5030432;28;45723;-52
2022/07/03 06:15:25;;;;;;;;;1.50;1.00;;;;;19.01;46.49;101372.28;5036609;28;45510;-51
2022/07/03 06:17:50;;;;;;;;;1.00;1.00;;;;;19.02;47.02;101371.38;5029840;28;75438;-54
2022/07/03 06:20:16;;;;;;;;;2.00;2.00;;;;;19.05;46.16;101379.16;5036973;28;45415;-52
2022/07/03 06:22:41;;;;;;;;;1.00;0.75;;;;;19.05;46.74;101381.78;5034494;28;57282;-51
2022/07/03 06:25:07;;;;;;;;;0.25;0.00;;;;;19.05;47.21;101384.44;5032073;28;72013;-51
2022/07/03 06:27:33;;;;;;;;;1.50;1.25;;;;;19.07;47.20;101385.22;5030215;28;45764;-50
2022/07/03 06:29:58;;;;;;;;;2.75;0.00;;;;;19.08;47.96;101386.94;5052069;28;45264;-53
2022/07/03 06:32:24;;;;;;;;;2.25;1.00;;;;;19.09;47.15;101384.22;5031480;28;45746;-51
2022/07/03 06:34:49;;;;;;;;;4.00;1.00;;;;;19.11;47.11;101385.00;5030811;28;45332;-51
2022/07/03 06:37:14;;;;;;;;;3.00;1.50;;;;;19.17;46.91;101386.47;5021132;28;45205;-49
2022/07/03 06:39:40;;;;;;;;;2.25;2.00;;;;;19.21;48.08;101393.34;5015249;28;51492;-49
2022/07/03 06:42:05;;;;;;;;;3.50;2.50;;;;;19.26;47.97;101385.97;5036896;28;61390;-52
2022/07/03 06:44:31;;;;;;;;;2.00;2.00;;;;;19.31;47.63;101385.72;5036572;28;60562;-52
2022/07/03 06:46:56;;;;;;;;;1.00;1.00;;;;;19.39;47.90;101383.53;5024729;28;45720;-52
2022/07/03 06:49:22;;;;;;;;;2.00;2.00;;;;;19.45;47.65;101383.19;5031753;28;45485;-50
2022/07/03 06:51:48;;;;;;;;;0.00;0.00;;;;;19.52;47.36;101386.38;5034037;28;45481;-49
2022/07/03 06:54:13;;;;;;;;;2.25;1.00;;;;;19.58;47.17;101387.84;5033538;28;45470;-47
2022/07/03 06:56:39;;;;;;;;;2.25;1.25;;;;;19.61;46.71;101383.22;5033180;28;68937;-48
2022/07/03 06:59:04;;;;;;;;;2.00;1.75;;;;;19.65;48.27;101384.75;5031382;28;45454;-48
2022/07/03 07:01:30;;;;;;;;;5.00;2.00;;;;;19.64;47.21;101388.38;5036182;28;45418;-48
2022/07/03 07:03:55;;;;;;;;;3.50;2.25;;;;;19.70;46.83;101389.81;5036168;28;45522;-49
2022/07/03 07:06:21;;;;;;;;;4.00;2.75;;;;;19.72;47.07;101387.94;5030891;28;45441;-51
2022/07/03 07:08:46;;;;;;;;;4.00;3.00;;;;;19.79;47.39;101401.78;5029226;28;45695;-50
2022/07/03 07:11:12;;;;;;;;;2.75;2.50;;;;;19.82;47.02;101401.63;5037663;28;45313;-51
2022/07/03 07:13:37;;;;;;;;;3.50;3.50;;;;;19.83;47.30;101393.56;5033247;28;66779;-48
2022/07/03 07:16:03;;;;;;;;;2.00;2.00;;;;;19.87;47.32;101397.75;5039139;28;46443;-47
2022/07/03 07:18:28;;;;;;;;;4.75;4.00;;;;;19.92;46.46;101397.50;5028251;28;45249;-48
2022/07/03 07:20:53;;;;;;;;;5.50;5.00;;;;;19.95;47.49;101397.31;5035985;28;59689;-50
2022/07/03 07:23:19;;;;;;;;;4.00;4.00;;;;;19.98;46.90;101399.81;5028866;28;53799;-50
2022/07/03 07:25:44;;;;;;;;;3.00;3.00;;;;;20.04;47.53;101404.78;5037043;28;60940;-46
2022/07/03 07:28:10;;;;;;;;;4.00;2.50;;;;;20.12;46.75;101406.16;5031490;28;45462;-52
2022/07/03 07:30:36;;;;;;;;;4.00;3.00;;;;;20.18;47.04;101406.66;5033539;28;45486;-49
2022/07/03 07:33:01;;;;;;;;;4.00;4.00;;;;;20.25;46.70;101407.16;5035449;28;45309;-47
2022/07/03 07:35:26;;;;;;;;;2.00;2.00;;;;;20.34;46.52;101411.94;5032827;28;45249;-49
2022/07/03 07:37:52;;;;;;;;;3.75;2.00;;;;;20.41;46.55;101409.81;5029793;28;45447;-48
2022/07/03 07:40:17;;;;;;;;;3.00;3.00;;;;;20.47;46.42;101412.97;5026960;28;63196;-49
2022/07/03 07:42:43;;;;;;;;;2.00;2.00;;;;;20.56;46.15;101400.09;5028447;28;45341;-48
2022/07/03 07:45:09;;;;;;;;;2.50;2.00;;;;;20.61;46.31;101401.56;5048762;28;47255;-51
2022/07/03 07:47:35;;;;;;;;;4.25;3.25;;;;;20.70;46.44;101404.63;5025016;28;45627;-50
2022/07/03 07:50:00;;;;;;;;;5.00;3.00;;;;;20.79;46.14;101404.94;5030379;28;45466;-48
2022/07/03 07:52:26;;;;;;;;;4.50;2.25;;;;;20.85;46.26;101412.53;5028667;28;50329;-50
2022/07/03 07:54:51;;;;;;;;;4.75;3.00;;;;;20.89;45.96;101402.56;5028194;28;46261;-47
2022/07/03 07:57:16;;;;;;;;;4.50;3.00;;;;;20.94;45.80;101400.50;5025004;28;45384;-47
2022/07/03 07:59:42;;;;;;;;;2.25;2.25;;;;;21.02;45.59;101405.38;5032264;28;45624;-51
2022/07/03 08:07:35;;;;;;;;;5.00;4.50;;;;;21.16;45.46;101407.19;5026203;28;45486;-49
2022/07/03 08:10:00;;;;;;;;;2.00;2.00;;;;;21.26;44.85;101412.81;5033260;28;66743;-48
2022/07/03 08:12:26;;;;;;;;;3.50;2.00;;;;;21.31;44.96;101408.06;5026611;28;47505;-52
2022/07/03 08:14:51;;;;;;;;;5.00;3.75;;;;;21.35;44.93;101406.91;5030411;28;48525;-49
2022/07/03 08:17:16;;;;;;;;;5.75;4.25;;;;;21.43;44.88;101404.66;5023499;28;59501;-48
2022/07/03 08:19:42;;;;;;;;;4.75;3.00;;;;;21.46;44.47;101403.63;5033555;28;63440;-51
2022/07/03 08:22:07;;;;;;;;;6.25;4.00;;;;;21.46;45.09;101400.94;5032959;28;45546;-51
2022/07/03 08:24:33;;;;;;;;;7.00;3.50;;;;;21.43;44.72;101404.66;5027000;28;46462;-51
2022/07/03 08:26:58;;;;;;;;;8.75;7.50;;;;;21.44;44.25;101401.00;5031069;28;70483;-46
2022/07/03 08:29:23;;;;;;;;;3.75;3.25;;;;;21.46;44.37;101401.84;5035748;28;45352;-48
2022/07/03 08:31:49;;;;;;;;;3.50;3.25;;;;;21.49;44.84;101401.63;5035999;28;45444;-47
2022/07/03 08:34:14;;;;;;;;;4.75;4.75;;;;;21.57;44.54;101404.66;5034481;28;61164;-47
2022/07/03 08:36:42;;;;;;;;;5.25;4.00;;;;;21.62;44.04;101404.38;5035369;28;45304;-47
2022/07/03 08:39:09;;;;;;;;;3.00;3.00;;;;;21.66;44.17;101407.72;5032731;28;45687;-46
2022/07/03 08:41:36;;;;;;;;;6.00;3.00;;;;;21.68;43.96;101409.31;5025148;28;45340;-48
2022/07/03 08:44:02;;;;;;;;;4.00;4.00;;;;;21.69;43.78;101402.16;5028921;28;47801;-52
2022/07/03 08:46:30;;;;;;;;;3.00;2.75;;;;;21.71;44.06;101401.13;5040568;28;45339;-48
2022/07/03 08:48:57;;;;;;;;;3.25;2.00;;;;;21.77;43.25;101399.88;5032002;28;45510;-48
2022/07/03 08:51:24;;;;;;;;;2.75;2.75;;;;;21.83;43.42;101403.97;5024607;28;45435;-46
2022/07/03 08:53:53;;;;;;;;;2.75;2.75;;;;;21.85;43.35;101394.94;5033611;28;46462;-49
2022/07/03 08:56:18;;;;;;;;;3.00;3.00;;;;;21.93;43.31;101397.94;5034692;28;45899;-48
2022/07/03 08:58:44;;;;;;;;;4.75;4.50;;;;;21.97;42.75;101395.94;5035881;28;45454;-47
2022/07/03 09:01:10;;;;;;;;;4.75;3.00;;;;;22.06;42.84;101400.69;5038442;28;45280;-48
2022/07/03 09:03:36;;;;;;;;;3.75;2.50;;;;;22.16;42.99;101398.28;5035597;28;46398;-48
2022/07/03 09:06:01;;;;;;;;;3.50;2.50;;;;;22.24;42.34;101398.63;5035572;28;48849;-50
2022/07/03 09:08:28;;;;;;;;;4.50;3.00;;;;;22.30;42.46;101402.72;5034001;28;45727;-47
2022/07/03 09:10:54;;;;;;;;;3.50;3.50;;;;;22.35;42.58;101398.81;5002247;28;45726;-51
2022/07/03 09:13:19;;;;;;;;;5.00;4.00;;;;;22.43;42.08;101392.09;5035807;28;63984;-52
2022/07/03 09:15:45;;;;;;;;;2.75;2.75;;;;;22.51;42.09;101398.63;5038705;28;45383;-48
2022/07/03 09:18:10;;;;;;;;;3.50;3.50;;;;;22.58;42.43;101395.56;5032703;28;45398;-52
2022/07/03 09:20:40;;;;;;;;;4.00;3.00;;;;;22.60;42.37;101394.50;5036218;28;62044;-50
2022/07/03 09:23:13;;;;;;;;;5.00;3.00;;;;;22.64;42.04;101404.00;5035490;28;46083;-47
2022/07/03 09:25:54;;;;;;;;;3.00;2.75;;;;;22.70;42.05;101390.25;5037907;28;45633;-53
2022/07/03 09:28:20;;;;;;;;;6.00;2.25;;;;;22.72;41.46;101399.00;5030740;28;45652;-52
2022/07/03 09:31:01;;;;;;;;;3.00;3.00;;;;;22.77;41.83;101395.16;5035237;28;45637;-50
2022/07/03 09:33:27;;;;;;;;;3.00;3.00;;;;;22.79;41.81;101390.56;5009527;28;46456;-50
2022/07/03 09:35:54;;;;;;;;;3.50;3.50;;;;;22.88;41.38;101405.97;5038420;28;45335;-58
2022/07/03 09:38:19;;;;;;;;;6.00;3.00;;;;;22.99;41.72;101402.56;5029120;28;45436;-50
2022/07/03 09:40:53;;;;;;;;;4.00;2.75;;;;;23.15;41.28;101381.88;5016464;28;45453;-52
2022/07/03 09:43:24;;;;;;;;;2.00;2.00;;;;;23.48;41.29;101394.69;5014268;28;46253;-48
2022/07/03 09:45:56;;;;;;;;;3.00;3.00;;;;;23.65;40.70;101392.59;5031349;28;45507;-53
2022/07/03 09:48:33;;;;;;;;;3.00;3.00;;;;;23.67;40.96;101396.91;5031191;28;45301;-48
2022/07/03 09:51:23;;;;;;;;;3.00;3.00;;;;;24.77;40.56;101392.41;5032924;28;45652;-47
2022/07/03 09:53:56;;;;;;;;;6.00;5.00;;;;;26.45;37.80;101388.88;5030548;28;45569;-49
2022/07/03 09:56:27;;;;;;;;;6.25;4.50;;;;;27.90;36.87;101392.50;5033172;28;45699;-52
2022/07/03 09:59:04;;;;;;;;;5.50;5.50;;;;;28.46;34.22;101401.81;5025836;28;45493;-53
2022/07/03 10:01:30;;;;;;;;;3.25;2.25;;;;;28.01;34.85;101401.34;5038914;28;45177;-49
2022/07/03 10:04:21;;;;;;;;;7.00;3.00;;;;;27.74;34.96;101407.31;5035347;28;46471;-47
2022/07/03 10:06:58;;;;;;;;;5.00;4.00;;;;;27.71;34.63;101402.25;5029137;28;45435;-52
2022/07/03 10:09:24;;;;;;;;;9.50;9.00;;;;;28.60;35.07;101401.41;5029064;28;45333;-52
2022/07/03 10:11:50;;;;;;;;;5.25;4.00;;;;;29.13;33.53;101394.63;5037943;28;45490;-51
2022/07/03 10:14:18;;;;;;;;;5.00;4.50;;;;;28.87;33.00;101405.19;5032025;28;46278;-48
2022/07/03 10:16:44;;;;;;;;;3.50;3.25;;;;;28.42;33.21;101412.00;5036219;28;45812;-53
2022/07/03 10:19:13;;;;;;;;;4.00;4.00;;;;;28.38;33.86;101411.44;5014356;28;45553;-51
2022/07/03 10:21:41;;;;;;;;;8.50;8.00;;;;;29.45;33.23;101414.97;5030958;28;45572;-54
2022/07/03 10:24:07;;;;;;;;;5.00;4.00;;;;;30.46;31.85;101406.84;5030731;28;46456;-55
2022/07/03 10:26:33;;;;;;;;;3.25;3.00;;;;;31.71;30.20;101410.19;5030262;28;61621;-57
2022/07/03 10:28:59;;;;;;;;;3.50;3.50;;;;;32.78;29.34;101410.38;5047971;28;45585;-52
2022/07/03 10:31:24;;;;;;;;;5.00;5.00;;;;;33.10;28.29;101412.19;5028505;28;72113;-50
2022/07/03 10:33:51;;;;;;;;;5.00;4.75;;;;;32.72;28.17;101409.19;5028574;28;64451;-50
2022/07/03 10:36:17;;;;;;;;;4.00;4.00;;;;;33.23;28.79;101412.50;5035118;28;45444;-51
2022/07/03 10:38:46;;;;;;;;;3.00;2.00;;;;;34.19;26.66;101405.13;5030371;28;45574;-52
2022/07/03 10:46:44;;;;;;;;;5.00;4.00;;;;;32.35;27.83;101408.66;5034572;28;45655;-54
2022/07/03 10:49:10;;;;;;;;;4.00;1.00;;;;;31.40;27.61;101397.19;5035167;28;65042;-49
2022/07/03 10:51:45;;;;;;;;;3.00;3.00;;;;;30.61;28.47;101397.16;5033037;28;45590;-51
2022/07/03 10:54:30;;;;;;;;;4.50;3.00;;;;;31.00;28.98;101396.78;5022885;28;46328;-53
2022/07/03 10:56:58;;;;;;;;;4.25;3.00;;;;;32.46;28.00;101402.06;5028189;28;45496;-49
2022/07/03 11:02:39;;;;;;;;;5.25;3.00;;;;;35.10;24.76;101401.63;5026605;28;45727;-58
2022/07/03 11:05:18;;;;;;;;;5.00;4.00;;;;;35.78;24.33;101393.31;5026319;28;46380;-54
2022/07/03 11:07:55;;;;;;;;;4.25;3.25;;;;;36.61;23.25;101401.91;5029642;28;45913;-53
2022/07/03 11:10:23;;;;;;;;;8.75;6.25;;;;;37.55;23.16;101406.09;5031097;28;45480;-58
2022/07/03 11:13:04;;;;;;;;;3.50;3.00;;;;;38.17;23.12;101402.31;5033687;28;45486;-52
2022/07/03 11:15:31;;;;;;;;;8.00;5.50;;;;;38.27;21.71;101406.53;5032919;28;45476;-56
2022/07/03 11:18:05;;;;;;;;;5.00;2.25;;;;;37.65;21.64;101409.31;5034669;28;45967;-50
2022/07/03 11:20:56;;;;;;;;;5.00;2.50;;;;;36.67;22.39;101406.56;5026907;28;45743;-54
2022/07/03 11:23:28;;;;;;;;;8.75;6.75;;;;;35.36;23.74;101401.16;5030413;28;45575;-50
2022/07/03 11:26:07;;;;;;;;;4.75;2.25;;;;;34.23;23.23;101398.31;5034610;28;45447;-47
2022/07/03 11:28:32;;;;;;;;;8.25;5.00;;;;;34.07;23.65;101402.97;5031825;28;45431;-51
2022/07/03 11:33:50;;;;;;;;;22.50;19.75;;;;;36.15;22.17;101397.69;5023493;28;45538;-51
2022/07/03 11:36:15;;;;;;;;;5.75;3.25;;;;;37.35;19.82;101403.28;5035038;28;46493;-51
2022/07/03 11:38:42;;;;;;;;;2.67;2.67;;;;;38.15;21.84;101398.94;5031197;28;45348;-52
2022/07/03 11:41:09;;;;;;;;;4.50;3.00;;;;;38.64;21.33;101399.63;5036488;28;45298;-51
2022/07/03 11:43:34;;;;;;;;;3.50;3.00;;;;;37.93;20.51;101391.94;5033260;28;45461;-50
2022/07/03 11:46:01;;;;;;;;;4.75;4.50;;;;;36.68;21.51;101398.22;5030299;28;55536;-53
2022/07/03 11:48:27;;;;;;;;;4.00;4.00;;;;;35.44;22.13;101395.59;5030006;28;45409;-51
2022/07/03 11:51:00;;;;;;;;;2.00;2.00;;;;;35.35;23.06;101400.31;5034438;28;45499;-51